Time;durP1;ratioP1;P1;durP2;ratioP2;P2;SDS_P1;SDS_P2;PMS_P1;PMS_P2;Temp;Humidity;BMP_temperature;BMP_pressure;BME280_temperature;BME280_humidity;BME280_pressure;Samples;Min_cycle;Max_cycle;Signal;HPM_P1;HPM_P2
2022/04/27 00:01:14;;;;;;;26.83;20.92;;;30.70;96.10;;;;;;4200429;28;20041;-70
2022/04/27 00:03:19;;;;;;;29.67;21.65;;;30.70;96.00;;;;;;4203529;28;20052;-71
2022/04/27 00:05:26;;;;;;;26.25;19.08;;;30.70;96.00;;;;;;4199468;28;20044;-71
2022/04/27 00:07:33;;;;;;;29.00;19.33;;;30.70;95.70;;;;;;4196870;28;20605;-72
2022/04/27 00:09:44;;;;;;;23.73;18.55;;;30.70;95.70;;;;;;4198191;28;20058;-71
2022/04/27 00:11:51;;;;;;;22.88;17.00;;;30.70;95.70;;;;;;4204092;28;20044;-71
2022/04/27 00:14:00;;;;;;;26.73;18.23;;;30.70;95.80;;;;;;4151005;28;20046;-71
2022/04/27 00:16:05;;;;;;;27.15;17.08;;;30.70;95.90;;;;;;4192846;28;20048;-71
2022/04/27 00:18:12;;;;;;;19.23;15.32;;;30.80;95.80;;;;;;4193420;28;20084;-71
2022/04/27 00:20:19;;;;;;;21.63;17.33;;;30.80;95.70;;;;;;4200020;28;20098;-71
2022/04/27 00:22:23;;;;;;;21.70;16.20;;;30.90;95.60;;;;;;4199472;28;20064;-72
2022/04/27 00:24:28;;;;;;;22.88;15.25;;;30.90;95.30;;;;;;4183176;28;20053;-72
2022/04/27 00:26:36;;;;;;;21.52;17.33;;;31.00;95.20;;;;;;4194691;28;20452;-72
2022/04/27 00:28:41;;;;;;;22.70;17.05;;;31.00;95.00;;;;;;4197031;28;20112;-71
2022/04/27 00:30:48;;;;;;;24.83;16.73;;;31.10;95.10;;;;;;4194071;28;20053;-72
2022/04/27 00:32:55;;;;;;;21.58;16.42;;;31.00;94.90;;;;;;4194459;28;20049;-72
2022/04/27 00:35:00;;;;;;;20.00;15.38;;;31.00;94.80;;;;;;4200032;28;20067;-71
2022/04/27 00:37:07;;;;;;;20.33;15.43;;;31.10;94.90;;;;;;4199215;28;20455;-71
2022/04/27 00:39:13;;;;;;;20.50;15.43;;;31.20;94.70;;;;;;4194552;28;20123;-73
2022/04/27 00:41:18;;;;;;;23.98;15.48;;;31.30;94.60;;;;;;4195190;28;20041;-71
2022/04/27 00:43:39;;;;;;;18.27;15.63;;;31.30;94.60;;;;;;4196593;28;20477;-72
2022/04/27 00:45:43;;;;;;;22.98;15.77;;;31.30;94.50;;;;;;4202930;28;20106;-71
2022/04/27 00:47:48;;;;;;;17.70;14.80;;;31.30;94.50;;;;;;4201905;28;20052;-72
2022/04/27 00:49:57;;;;;;;21.52;14.27;;;31.40;94.40;;;;;;4201104;28;20105;-72
2022/04/27 00:52:02;;;;;;;21.92;15.35;;;31.40;94.30;;;;;;4186140;28;20053;-72
2022/04/27 00:54:07;;;;;;;21.95;16.00;;;31.50;94.40;;;;;;4183564;28;20061;-73
2022/04/27 00:56:14;;;;;;;20.02;16.55;;;31.50;94.30;;;;;;4203481;28;20049;-72
2022/04/27 00:58:20;;;;;;;22.98;16.58;;;31.50;94.30;;;;;;4198022;28;20049;-72
2022/04/27 01:00:44;;;;;;;18.83;16.35;;;31.50;94.40;;;;;;4187976;28;20045;-71
2022/04/27 01:02:49;;;;;;;22.40;16.50;;;31.60;94.20;;;;;;4184436;28;20044;-72
2022/04/27 01:04:56;;;;;;;23.58;17.90;;;31.60;94.40;;;;;;4196606;28;20071;-72
2022/04/27 01:07:01;;;;;;;25.27;15.45;;;31.60;94.30;;;;;;4195215;28;20041;-71
2022/04/27 01:09:07;;;;;;;20.90;16.25;;;31.60;94.40;;;;;;4180547;28;20056;-73
2022/04/27 01:11:15;;;;;;;21.67;17.08;;;31.50;94.40;;;;;;4198310;28;20053;-72
2022/04/27 01:13:29;;;;;;;24.02;16.92;;;31.60;94.20;;;;;;4180616;28;20052;-72
2022/04/27 01:15:37;;;;;;;18.17;15.43;;;31.70;94.10;;;;;;4182022;28;20044;-73
2022/04/27 01:17:45;;;;;;;20.25;15.23;;;31.80;94.20;;;;;;4182482;28;20044;-72
2022/04/27 01:19:50;;;;;;;20.42;14.70;;;31.80;94.20;;;;;;4201365;28;20047;-72
2022/04/27 01:21:57;;;;;;;23.75;17.50;;;31.90;94.40;;;;;;4199769;28;20078;-72
2022/04/27 01:24:07;;;;;;;19.80;16.63;;;31.90;94.20;;;;;;4184697;28;20049;-73
2022/04/27 01:26:12;;;;;;;20.88;16.13;;;31.90;94.20;;;;;;4174503;28;20049;-73
2022/04/27 01:28:20;;;;;;;21.95;16.95;;;31.90;94.30;;;;;;4196821;28;20272;-72
2022/04/27 01:30:25;;;;;;;21.17;16.17;;;31.90;94.00;;;;;;4199999;28;20044;-73
2022/04/27 01:32:29;;;;;;;24.95;16.73;;;31.90;94.00;;;;;;4192043;28;20057;-73
2022/04/27 01:34:36;;;;;;;21.48;15.50;;;31.90;93.80;;;;;;4192487;28;20059;-73
2022/04/27 01:36:43;;;;;;;25.55;16.73;;;31.80;94.10;;;;;;4199650;28;20071;-71
2022/04/27 01:38:47;;;;;;;24.42;16.23;;;31.80;94.00;;;;;;4180691;28;20133;-71
2022/04/27 01:40:54;;;;;;;21.98;16.33;;;31.80;94.00;;;;;;4199930;28;20036;-70
2022/04/27 01:43:01;;;;;;;23.77;15.77;;;31.90;94.00;;;;;;4190166;28;20045;-73
2022/04/27 01:45:06;;;;;;;24.38;17.15;;;32.00;93.90;;;;;;4197468;28;20132;-72
2022/04/27 01:47:13;;;;;;;23.02;16.85;;;31.90;93.70;;;;;;4196863;28;20041;-72
2022/04/27 01:49:19;;;;;;;23.27;16.02;;;31.90;93.70;;;;;;4195739;28;20912;-71
2022/04/27 01:56:03;;;;;;;22.25;15.25;;;32.10;93.40;;;;;;4197155;28;20040;-71
2022/04/27 01:58:14;;;;;;;15.65;13.95;;;32.30;93.10;;;;;;4183604;28;20051;-71
2022/04/27 02:00:21;;;;;;;19.45;14.88;;;32.20;93.00;;;;;;4184814;28;20033;-72
2022/04/27 02:02:33;;;;;;;20.75;14.75;;;32.30;93.00;;;;;;4198078;28;20037;-71
2022/04/27 02:04:41;;;;;;;18.70;15.00;;;32.30;92.80;;;;;;4181381;28;20062;-72
2022/04/27 02:06:50;;;;;;;18.25;14.18;;;32.40;92.80;;;;;;4182913;28;20049;-72
2022/04/27 02:08:56;;;;;;;17.20;13.95;;;32.40;92.40;;;;;;4180083;28;20045;-71
2022/04/27 02:11:06;;;;;;;20.52;14.20;;;32.50;92.30;;;;;;4184158;28;20045;-70
2022/04/27 02:13:18;;;;;;;21.98;14.10;;;32.50;92.20;;;;;;4171313;28;20053;-72
2022/04/27 02:15:27;;;;;;;17.88;13.50;;;32.60;92.00;;;;;;4180173;28;20044;-72
2022/04/27 02:17:44;;;;;;;16.88;13.85;;;32.70;91.80;;;;;;4182122;28;20069;-72
2022/04/27 02:19:52;;;;;;;18.02;13.32;;;32.70;91.50;;;;;;4185062;28;20063;-71
2022/04/27 02:21:59;;;;;;;22.17;14.20;;;32.80;91.60;;;;;;4180229;28;20053;-71
2022/04/27 02:24:03;;;;;;;22.63;14.60;;;32.90;91.80;;;;;;4197466;28;20661;-71
2022/04/27 02:26:11;;;;;;;17.17;14.30;;;32.90;91.90;;;;;;4186775;28;20059;-71
2022/04/27 02:28:18;;;;;;;18.85;15.05;;;33.00;91.80;;;;;;4185409;28;20051;-74
2022/04/27 02:30:23;;;;;;;18.20;13.85;;;33.00;91.60;;;;;;4183956;28;20049;-70
2022/04/27 02:32:28;;;;;;;21.65;14.68;;;33.10;91.40;;;;;;4201469;28;20045;-70
2022/04/27 02:34:35;;;;;;;19.33;13.88;;;33.20;91.50;;;;;;4177681;28;20045;-72
2022/04/27 02:36:40;;;;;;;21.00;14.95;;;33.20;91.60;;;;;;4198993;28;20051;-73
2022/04/27 02:38:47;;;;;;;22.75;14.75;;;33.30;91.40;;;;;;4184678;28;20395;-73
2022/04/27 02:40:55;;;;;;;20.70;14.50;;;33.30;91.30;;;;;;4185539;28;20045;-73
2022/04/27 02:43:00;;;;;;;21.35;14.98;;;33.40;91.30;;;;;;4177106;28;20072;-72
2022/04/27 02:45:07;;;;;;;17.92;13.57;;;33.40;91.20;;;;;;4166311;28;20500;-73
2022/04/27 02:47:14;;;;;;;22.17;14.93;;;33.40;91.20;;;;;;4201972;28;20073;-73
2022/04/27 02:54:20;;;;;;;21.45;15.05;;;33.60;90.90;;;;;;4198683;28;20041;-73
2022/04/27 02:56:28;;;;;;;17.75;14.38;;;33.60;90.70;;;;;;4200556;28;20491;-73
2022/04/27 02:58:32;;;;;;;21.35;15.07;;;33.50;90.80;;;;;;4198696;28;20139;-74
2022/04/27 03:00:37;;;;;;;22.02;14.63;;;33.60;90.90;;;;;;4194292;28;20392;-73
2022/04/27 03:02:44;;;;;;;20.05;14.30;;;33.60;90.80;;;;;;4199245;28;20036;-74
2022/04/27 03:04:51;;;;;;;22.85;15.35;;;33.80;90.70;;;;;;4181928;28;20080;-73
2022/04/27 03:06:57;;;;;;;21.58;14.30;;;33.80;90.60;;;;;;4181034;28;20079;-73
2022/04/27 03:09:02;;;;;;;18.70;14.55;;;33.90;90.70;;;;;;4169796;28;20064;-73
2022/04/27 03:11:10;;;;;;;21.02;14.48;;;34.00;90.80;;;;;;4205467;28;20032;-74
2022/04/27 03:13:38;;;;;;;19.70;14.20;;;34.10;90.60;;;;;;4208706;28;20040;-73
2022/04/27 03:15:49;;;;;;;18.38;13.82;;;34.20;90.20;;;;;;4201565;28;20041;-73
2022/04/27 03:20:12;;;;;;;19.55;14.38;;;34.20;90.10;;;;;;4188159;28;20041;-73
2022/04/27 03:22:17;;;;;;;19.17;14.35;;;34.20;90.00;;;;;;4206082;28;20067;-72
2022/04/27 03:24:24;;;;;;;22.80;15.20;;;34.30;90.20;;;;;;4205563;28;20045;-72
2022/04/27 03:26:42;;;;;;;18.58;14.45;;;34.30;90.20;;;;;;4170802;28;20045;-73
2022/04/27 03:28:47;;;;;;;19.63;13.13;;;34.40;90.10;;;;;;4203277;28;20086;-73
2022/04/27 03:30:55;;;;;;;17.48;13.55;;;34.50;90.00;;;;;;4186046;28;20043;-74
2022/04/27 03:33:10;;;;;;;21.90;13.15;;;34.50;89.30;;;;;;4157622;28;20053;-71
2022/04/27 03:35:15;;;;;;;16.67;13.10;;;34.50;89.40;;;;;;4203006;28;20471;-72
2022/04/27 03:37:20;;;;;;;17.10;12.88;;;34.60;88.60;;;;;;4170679;28;20084;-71
2022/04/27 03:39:26;;;;;;;18.65;13.25;;;34.60;88.40;;;;;;4186174;28;20041;-72
2022/04/27 03:41:54;;;;;;;17.33;12.55;;;34.70;87.80;;;;;;4185079;28;20064;-72
2022/04/27 03:44:00;;;;;;;18.15;12.55;;;34.70;87.40;;;;;;4204235;28;20128;-72
2022/04/27 03:46:07;;;;;;;19.92;13.07;;;34.70;87.50;;;;;;4202058;28;20047;-72
2022/04/27 03:48:15;;;;;;;17.33;13.32;;;34.80;87.30;;;;;;4185214;28;20037;-71
2022/04/27 03:50:22;;;;;;;16.40;13.35;;;34.80;87.00;;;;;;4202623;28;20111;-73
2022/04/27 03:52:29;;;;;;;16.48;12.57;;;34.80;86.80;;;;;;4205294;28;20037;-72
2022/04/27 03:54:34;;;;;;;18.40;12.73;;;34.80;86.80;;;;;;4187020;28;20045;-70
2022/04/27 03:56:39;;;;;;;19.75;12.57;;;34.90;86.90;;;;;;4205607;28;20029;-72
2022/04/27 03:58:50;;;;;;;15.63;11.48;;;35.00;86.60;;;;;;4187277;28;20079;-72
2022/04/27 04:00:56;;;;;;;14.30;11.52;;;35.00;85.40;;;;;;4186602;28;20104;-71
2022/04/27 04:03:05;;;;;;;12.52;10.32;;;35.00;84.50;;;;;;4170543;28;20045;-70
2022/04/27 04:05:18;;;;;;;13.70;11.45;;;35.00;84.20;;;;;;4186222;28;20083;-70
2022/04/27 04:07:23;;;;;;;18.48;12.07;;;35.00;84.60;;;;;;4181724;28;20045;-71
2022/04/27 04:09:39;;;;;;;14.80;10.83;;;35.10;85.10;;;;;;4201148;28;20120;-70
2022/04/27 04:11:47;;;;;;;14.87;10.83;;;35.10;84.40;;;;;;4203283;28;20044;-71
2022/04/27 04:14:12;;;;;;;15.40;10.93;;;35.20;84.30;;;;;;4201860;28;20350;-71
2022/04/27 04:16:31;;;;;;;17.67;11.50;;;35.20;82.70;;;;;;4201851;28;20052;-71
2022/04/27 04:18:56;;;;;;;13.85;10.77;;;35.20;83.60;;;;;;4200758;28;20463;-71
2022/04/27 04:21:26;;;;;;;13.15;10.73;;;35.20;83.30;;;;;;4200981;28;20068;-71
2022/04/27 04:23:52;;;;;;;14.05;10.75;;;35.30;82.20;;;;;;4201666;28;20058;-73
2022/04/27 04:30:36;;;;;;;13.68;10.80;;;35.40;82.00;;;;;;4187200;28;20531;-72
2022/04/27 04:33:02;;;;;;;19.48;10.65;;;35.50;82.30;;;;;;4202161;28;20127;-72
2022/04/27 04:35:10;;;;;;;15.18;10.80;;;35.60;81.90;;;;;;4185561;28;20041;-73
2022/04/27 04:37:17;;;;;;;14.10;9.80;;;35.70;81.70;;;;;;4203289;28;20107;-72
2022/04/27 04:39:23;;;;;;;16.33;10.32;;;35.70;82.00;;;;;;4186945;28;20033;-73
2022/04/27 04:41:28;;;;;;;14.52;10.45;;;35.60;81.50;;;;;;4184560;28;20049;-73
2022/04/27 04:43:36;;;;;;;14.18;10.23;;;35.70;82.10;;;;;;4184421;28;20057;-73
2022/04/27 04:45:41;;;;;;;14.20;10.18;;;35.70;81.90;;;;;;4186971;28;20045;-72
2022/04/27 04:48:01;;;;;;;12.10;10.35;;;35.80;81.00;;;;;;4186064;28;20064;-72
2022/04/27 04:50:20;;;;;;;13.00;10.23;;;35.70;80.80;;;;;;4202954;28;20051;-72
2022/04/27 04:52:45;;;;;;;12.18;10.30;;;35.60;80.70;;;;;;4185042;28;20072;-74
2022/04/27 04:55:03;;;;;;;14.93;10.45;;;35.80;81.70;;;;;;4202127;28;20049;-73
2022/04/27 04:57:29;;;;;;;12.63;10.07;;;35.80;81.10;;;;;;4188379;28;20090;-73
2022/04/27 04:59:48;;;;;;;12.05;9.27;;;35.80;80.90;;;;;;4202762;28;20041;-73
2022/04/27 05:02:10;;;;;;;13.85;10.18;;;35.90;80.90;;;;;;4185989;28;20091;-72
2022/04/27 05:04:30;;;;;;;14.68;10.25;;;35.90;80.30;;;;;;4203113;28;20053;-72
2022/04/27 05:06:50;;;;;;;13.93;10.15;;;35.70;80.40;;;;;;4202900;28;20047;-74
2022/04/27 05:09:14;;;;;;;13.90;9.70;;;35.80;81.00;;;;;;4203901;28;20048;-73
2022/04/27 05:11:33;;;;;;;14.93;9.63;;;36.00;81.00;;;;;;4200271;28;20033;-73
2022/04/27 05:13:51;;;;;;;17.13;9.88;;;36.10;81.30;;;;;;4201685;28;20044;-72
2022/04/27 05:16:08;;;;;;;13.45;9.85;;;36.20;79.00;;;;;;4204062;28;20055;-72
2022/04/27 05:18:29;;;;;;;12.80;9.68;;;36.30;78.60;;;;;;4202877;28;20400;-72
2022/04/27 05:20:53;;;;;;;17.05;8.98;;;36.30;78.30;;;;;;4201942;28;20037;-72
2022/04/27 05:23:11;;;;;;;12.55;9.02;;;36.40;77.90;;;;;;4204646;28;20064;-72
2022/04/27 05:25:30;;;;;;;11.50;8.65;;;36.50;77.80;;;;;;4201933;28;20052;-72
2022/04/27 05:27:56;;;;;;;12.65;9.52;;;36.50;77.10;;;;;;4200808;28;20068;-71
2022/04/27 05:32:55;;;;;;;10.75;9.15;;;36.60;77.90;;;;;;4203383;28;20045;-73
2022/04/27 05:35:13;;;;;;;14.10;9.52;;;36.60;77.60;;;;;;4203611;28;20108;-70
2022/04/27 05:37:29;;;;;;;12.73;9.13;;;36.60;77.80;;;;;;4183466;28;20055;-72
2022/04/27 05:39:58;;;;;;;13.73;9.32;;;36.50;77.60;;;;;;4201529;28;20048;-73
2022/04/27 05:42:15;;;;;;;11.30;9.10;;;36.50;78.90;;;;;;4204528;28;20044;-70
2022/04/27 05:44:40;;;;;;;15.38;9.68;;;36.50;78.20;;;;;;4202521;28;20445;-73
2022/04/27 05:46:58;;;;;;;18.30;9.90;;;36.60;78.00;;;;;;4188649;28;20079;-73
2022/04/27 05:49:15;;;;;;;14.43;9.00;;;36.70;77.30;;;;;;4204945;28;20033;-72
2022/04/27 05:51:32;;;;;;;15.82;9.25;;;36.70;77.10;;;;;;4205721;28;20093;-73
2022/04/27 05:53:58;;;;;;;12.93;9.55;;;36.90;77.20;;;;;;4191107;28;20044;-72
2022/04/27 05:56:19;;;;;;;13.93;9.35;;;37.00;78.20;;;;;;4187272;28;20052;-72
2022/04/27 05:58:37;;;;;;;13.02;9.68;;;37.00;79.30;;;;;;4204158;28;20040;-70
2022/04/27 06:01:02;;;;;;;15.55;10.45;;;37.10;79.40;;;;;;4188332;28;20049;-73
2022/04/27 06:03:19;;;;;;;12.07;9.65;;;37.20;78.50;;;;;;4187952;28;20052;-73
2022/04/27 06:05:25;;;;;;;14.25;10.00;;;37.20;78.30;;;;;;4189586;28;20044;-72
2022/04/27 06:07:30;;;;;;;14.65;9.85;;;37.30;78.60;;;;;;4201111;28;20522;-73
2022/04/27 06:09:37;;;;;;;13.15;9.63;;;37.30;79.00;;;;;;4162400;28;20069;-72
2022/04/27 06:11:47;;;;;;;12.48;9.60;;;37.40;79.10;;;;;;4185412;28;20590;-72
2022/04/27 06:14:06;;;;;;;12.57;9.85;;;37.40;79.10;;;;;;4190055;28;20426;-73
2022/04/27 06:16:22;;;;;;;11.90;9.73;;;37.50;78.10;;;;;;4183753;28;20335;-71
2022/04/27 06:18:40;;;;;;;10.75;8.70;;;37.50;77.90;;;;;;4187100;28;20573;-72
2022/04/27 06:20:52;;;;;;;12.60;9.13;;;37.40;77.70;;;;;;4203788;28;20037;-72
2022/04/27 06:22:57;;;;;;;13.68;9.30;;;37.20;78.00;;;;;;4201618;28;20076;-72
2022/04/27 06:25:05;;;;;;;10.40;8.82;;;37.20;78.00;;;;;;4206706;28;20048;-72
2022/04/27 06:27:23;;;;;;;13.90;8.82;;;37.40;77.50;;;;;;4188497;28;20495;-73
2022/04/27 06:29:35;;;;;;;16.45;9.77;;;37.50;76.70;;;;;;4188193;28;20100;-72
2022/04/27 06:31:40;;;;;;;12.45;9.35;;;37.60;76.60;;;;;;4203917;28;20083;-72
2022/04/27 06:33:45;;;;;;;11.88;9.18;;;37.60;75.80;;;;;;4203931;28;20036;-71
2022/04/27 06:35:54;;;;;;;11.52;9.05;;;37.60;76.50;;;;;;4186339;28;20091;-71
2022/04/27 06:37:59;;;;;;;10.82;9.18;;;37.70;76.80;;;;;;4202804;28;20651;-73
2022/04/27 06:40:45;;;;;;;12.77;8.73;;;37.70;77.10;;;;;;4189322;28;20051;-70
2022/04/27 06:42:53;;;;;;;12.00;9.05;;;37.70;77.70;;;;;;4137166;28;20109;-72
2022/04/27 06:45:10;;;;;;;12.75;9.68;;;37.80;77.80;;;;;;4203877;28;20098;-72
2022/04/27 06:47:29;;;;;;;12.75;9.48;;;37.60;78.00;;;;;;4206530;28;20066;-72
2022/04/27 06:49:48;;;;;;;11.52;8.60;;;37.50;78.00;;;;;;4206116;28;20050;-73
2022/04/27 06:52:05;;;;;;;11.63;9.10;;;37.50;77.60;;;;;;4201058;28;20052;-72
2022/04/27 06:54:24;;;;;;;15.77;9.70;;;37.60;77.80;;;;;;4202244;28;20472;-73
2022/04/27 06:56:55;;;;;;;17.90;9.35;;;37.70;77.90;;;;;;4201614;28;20388;-73
2022/04/27 06:59:19;;;;;;;13.43;9.73;;;37.70;78.00;;;;;;4188002;28;20040;-73
2022/04/27 07:01:33;;;;;;;14.30;9.60;;;37.70;77.80;;;;;;4186923;28;20041;-72
2022/04/27 07:03:44;;;;;;;10.32;9.07;;;37.80;77.70;;;;;;4187951;28;20140;-72
2022/04/27 07:05:49;;;;;;;10.05;8.70;;;37.80;77.30;;;;;;4203992;28;20074;-72
2022/04/27 07:07:57;;;;;;;13.52;8.90;;;37.90;77.60;;;;;;4200028;28;20408;-72
2022/04/27 07:10:04;;;;;;;12.85;9.13;;;37.90;77.00;;;;;;4168782;28;20149;-71
2022/04/27 07:12:08;;;;;;;11.77;8.73;;;37.80;77.00;;;;;;4205266;28;20057;-72
2022/04/27 07:14:16;;;;;;;12.35;9.43;;;37.90;76.20;;;;;;4187622;28;20072;-71
2022/04/27 07:16:23;;;;;;;10.90;9.00;;;37.70;76.60;;;;;;4170247;28;20037;-73
2022/04/27 07:18:29;;;;;;;12.70;8.95;;;37.90;76.80;;;;;;4202154;28;20105;-72
2022/04/27 07:20:37;;;;;;;13.20;8.80;;;37.90;76.50;;;;;;4204337;28;20055;-73
2022/04/27 07:22:44;;;;;;;12.65;9.10;;;38.00;76.50;;;;;;4200729;28;20085;-72
2022/04/27 07:24:49;;;;;;;14.07;9.30;;;38.00;75.70;;;;;;4201689;28;20040;-73
2022/04/27 07:26:56;;;;;;;12.07;8.90;;;38.00;75.70;;;;;;4201744;28;20040;-71
2022/04/27 07:29:02;;;;;;;10.95;9.05;;;38.00;75.40;;;;;;4187529;28;20049;-71
2022/04/27 07:31:06;;;;;;;11.98;8.98;;;38.10;74.70;;;;;;4205146;28;20117;-72
2022/04/27 07:33:13;;;;;;;10.90;9.15;;;38.10;75.00;;;;;;4202560;28;20040;-72
2022/04/27 07:35:18;;;;;;;10.32;8.73;;;38.10;74.70;;;;;;4204207;28;20091;-71
2022/04/27 07:37:23;;;;;;;13.10;8.98;;;38.10;74.40;;;;;;4201743;28;20052;-70
2022/04/27 07:39:27;;;;;;;11.40;8.80;;;38.00;74.30;;;;;;4207706;28;20037;-72
2022/04/27 07:41:35;;;;;;;13.38;8.60;;;38.00;74.50;;;;;;4206057;28;20536;-72
2022/04/27 07:43:40;;;;;;;11.65;9.07;;;38.10;74.60;;;;;;4202481;28;20434;-74
2022/04/27 07:45:47;;;;;;;10.60;8.13;;;38.10;74.80;;;;;;4205690;28;20452;-74
2022/04/27 07:48:05;;;;;;;11.65;9.25;;;38.10;75.00;;;;;;4139571;28;20050;-73
2022/04/27 07:50:11;;;;;;;13.75;8.70;;;38.10;74.80;;;;;;4137781;28;20053;-74
2022/04/27 07:52:18;;;;;;;13.80;8.80;;;38.10;74.90;;;;;;4123079;28;20049;-74
2022/04/27 07:54:24;;;;;;;10.05;8.27;;;38.10;75.30;;;;;;4139464;28;20133;-73
2022/04/27 07:56:29;;;;;;;20.08;10.63;;;38.00;74.80;;;;;;4137879;28;20050;-70
2022/04/27 07:58:35;;;;;;;23.08;9.52;;;38.00;75.20;;;;;;4135768;28;20038;-71
2022/04/27 08:00:45;;;;;;;15.82;9.55;;;37.90;75.30;;;;;;4135120;28;20042;-73
2022/04/27 08:02:49;;;;;;;11.25;9.18;;;37.90;75.80;;;;;;4135439;28;20056;-71
2022/04/27 08:04:55;;;;;;;14.65;9.38;;;37.80;76.20;;;;;;4136159;28;20073;-71
2022/04/27 08:07:01;;;;;;;14.82;9.63;;;37.80;75.80;;;;;;4137033;28;20049;-71
2022/04/27 08:09:07;;;;;;;15.68;9.70;;;37.70;76.10;;;;;;4139243;28;20145;-70
2022/04/27 08:11:15;;;;;;;14.25;8.95;;;37.80;76.30;;;;;;4135863;28;20050;-70
2022/04/27 08:13:22;;;;;;;12.48;9.35;;;37.70;76.10;;;;;;4136502;28;20141;-71
2022/04/27 08:15:28;;;;;;;14.38;9.60;;;37.70;76.50;;;;;;4137012;28;20046;-70
2022/04/27 08:17:35;;;;;;;14.32;9.25;;;37.70;76.70;;;;;;4138396;28;20071;-71
2022/04/27 08:19:45;;;;;;;14.30;9.57;;;37.70;76.00;;;;;;4153077;28;20046;-71
2022/04/27 08:21:51;;;;;;;13.70;9.45;;;37.60;75.40;;;;;;4136824;28;20048;-72
2022/04/27 08:23:59;;;;;;;14.55;8.90;;;37.60;75.30;;;;;;4151312;28;20133;-71
2022/04/27 08:26:07;;;;;;;11.57;9.13;;;37.60;75.10;;;;;;4152014;28;20050;-70
2022/04/27 08:28:12;;;;;;;11.40;9.23;;;37.60;74.80;;;;;;4151901;28;20105;-70
2022/04/27 08:30:19;;;;;;;12.82;9.60;;;37.60;74.40;;;;;;4090151;28;20063;-70
2022/04/27 08:32:26;;;;;;;14.00;9.52;;;37.60;75.10;;;;;;4151443;28;20049;-69
2022/04/27 08:34:30;;;;;;;12.27;9.50;;;37.60;75.30;;;;;;4136634;28;20104;-71
2022/04/27 08:36:37;;;;;;;12.18;9.20;;;37.60;75.00;;;;;;4137613;28;20465;-70
2022/04/27 08:38:45;;;;;;;11.65;8.82;;;37.60;74.80;;;;;;4171297;28;20041;-72
2022/04/27 08:40:49;;;;;;;13.23;8.75;;;37.50;74.90;;;;;;4166289;28;20037;-71
2022/04/27 08:42:56;;;;;;;15.27;9.85;;;37.50;75.30;;;;;;4177324;28;20038;-71
2022/04/27 08:45:03;;;;;;;14.10;9.07;;;37.50;75.30;;;;;;4142116;28;20056;-70
2022/04/27 08:47:09;;;;;;;11.65;8.85;;;37.50;75.20;;;;;;4178909;28;20052;-70
2022/04/27 08:49:15;;;;;;;10.48;9.23;;;37.50;74.50;;;;;;4182850;28;20095;-71
2022/04/27 08:51:24;;;;;;;13.43;9.30;;;37.40;74.50;;;;;;4185430;28;20065;-71
2022/04/27 08:53:29;;;;;;;18.83;10.10;;;37.30;74.90;;;;;;4184886;28;20071;-70
2022/04/27 08:55:36;;;;;;;12.27;9.05;;;37.30;75.20;;;;;;4181008;28;20055;-72
2022/04/27 08:57:43;;;;;;;12.38;9.45;;;37.20;75.60;;;;;;4180772;28;20478;-71
2022/04/27 08:59:48;;;;;;;13.15;9.13;;;37.10;76.50;;;;;;4168233;28;20797;-71
2022/04/27 09:01:54;;;;;;;11.95;9.80;;;37.00;77.00;;;;;;4183254;28;20045;-72
2022/04/27 09:04:19;;;;;;;11.52;9.55;;;37.00;77.10;;;;;;4160305;28;20041;-72
2022/04/27 09:06:25;;;;;;;13.73;10.02;;;36.90;77.70;;;;;;4176382;28;20126;-70
2022/04/27 09:08:45;;;;;;;21.08;10.30;;;36.80;77.90;;;;;;4156973;28;20812;-71
2022/04/27 09:10:50;;;;;;;21.13;11.27;;;36.70;76.50;;;;;;4182082;28;20483;-71
2022/04/27 09:12:55;;;;;;;15.15;10.55;;;36.70;75.60;;;;;;4166534;28;20503;-72
2022/04/27 09:15:06;;;;;;;15.45;9.98;;;36.60;76.30;;;;;;4173271;28;20049;-70
2022/04/27 09:22:05;;;;;;;23.38;12.27;;;36.50;77.00;;;;;;4191399;28;20128;-70
2022/04/27 09:24:12;;;;;;;23.55;12.23;;;36.40;78.00;;;;;;4193057;28;20499;-71
2022/04/27 09:26:22;;;;;;;24.33;12.27;;;36.50;78.00;;;;;;4193738;28;20064;-72
2022/04/27 09:28:30;;;;;;;15.30;11.55;;;36.40;78.00;;;;;;4198446;28;20208;-72
2022/04/27 09:30:37;;;;;;;15.70;11.32;;;36.40;78.20;;;;;;4192154;28;20036;-71
2022/04/27 09:32:51;;;;;;;18.00;11.50;;;36.40;78.30;;;;;;4192831;28;20068;-72
2022/04/27 09:35:03;;;;;;;19.45;12.73;;;36.30;79.00;;;;;;4149240;28;20058;-71
2022/04/27 09:37:16;;;;;;;18.20;10.77;;;36.30;80.30;;;;;;4175726;28;20044;-72
2022/04/27 09:39:27;;;;;;;22.67;12.73;;;36.20;80.30;;;;;;4183369;28;20048;-71
2022/04/27 09:41:44;;;;;;;25.60;15.05;;;36.20;80.20;;;;;;4193868;28;20048;-70
2022/04/27 09:43:49;;;;;;;16.85;12.70;;;36.00;78.70;;;;;;4187748;28;20072;-72
2022/04/27 09:45:54;;;;;;;19.88;12.38;;;35.90;78.30;;;;;;4179551;28;20083;-71
2022/04/27 09:48:03;;;;;;;19.83;12.98;;;35.80;78.70;;;;;;4183623;28;20053;-72
2022/04/27 09:50:08;;;;;;;21.25;13.43;;;35.80;79.50;;;;;;4195198;28;20090;-72
2022/04/27 09:52:15;;;;;;;22.83;13.57;;;35.70;80.10;;;;;;4194963;28;20040;-71
2022/04/27 09:54:23;;;;;;;24.50;14.95;;;35.40;80.10;;;;;;4193685;28;20065;-71
2022/04/27 09:56:49;;;;;;;27.40;15.40;;;35.20;81.00;;;;;;4192137;28;20142;-71
2022/04/27 09:58:56;;;;;;;22.65;13.50;;;35.20;81.70;;;;;;4193518;28;20048;-73
2022/04/27 10:01:04;;;;;;;19.55;11.95;;;35.20;81.90;;;;;;4178068;28;20147;-71
2022/04/27 10:03:13;;;;;;;21.80;13.90;;;35.30;82.10;;;;;;4193328;28;20041;-72
2022/04/27 10:05:20;;;;;;;22.63;14.10;;;35.30;82.80;;;;;;4191904;28;20041;-72
2022/04/27 10:07:32;;;;;;;21.02;14.98;;;35.30;82.20;;;;;;4188483;28;20102;-71
2022/04/27 10:09:37;;;;;;;24.83;14.23;;;35.30;82.60;;;;;;4191725;28;20049;-72
2022/04/27 10:11:47;;;;;;;17.98;12.50;;;35.20;82.30;;;;;;4193580;28;20041;-73
2022/04/27 10:13:55;;;;;;;16.08;12.15;;;35.10;81.50;;;;;;4192027;28;20099;-71
2022/04/27 10:16:00;;;;;;;17.80;11.45;;;35.10;80.50;;;;;;4193629;28;20610;-73
2022/04/27 10:18:04;;;;;;;14.98;11.90;;;35.10;79.60;;;;;;4189342;28;20052;-73
2022/04/27 10:20:31;;;;;;;20.65;11.95;;;35.10;79.30;;;;;;4179888;28;20096;-74
2022/04/27 10:22:36;;;;;;;19.63;12.27;;;35.10;80.20;;;;;;4181701;28;20041;-72
2022/04/27 10:24:49;;;;;;;17.98;11.82;;;35.00;80.70;;;;;;4193979;28;20124;-72
2022/04/27 10:26:56;;;;;;;15.32;11.70;;;35.00;80.10;;;;;;4176574;28;20045;-73
2022/04/27 10:29:06;;;;;;;19.92;11.80;;;35.00;80.00;;;;;;4176742;28;20056;-73
2022/04/27 10:31:11;;;;;;;18.60;12.35;;;35.00;81.00;;;;;;4181193;28;20047;-72
2022/04/27 10:33:43;;;;;;;18.58;12.65;;;35.00;80.90;;;;;;4183177;28;20041;-74
2022/04/27 10:35:48;;;;;;;19.90;13.18;;;35.00;81.30;;;;;;4186474;28;20045;-73
2022/04/27 10:37:57;;;;;;;20.25;13.43;;;35.00;81.80;;;;;;4183939;28;20183;-73
2022/04/27 10:40:32;;;;;;;22.38;13.30;;;34.80;81.40;;;;;;4174578;28;20400;-73
2022/04/27 10:42:37;;;;;;;18.30;12.75;;;34.50;81.30;;;;;;4178918;28;20068;-72
2022/04/27 10:45:04;;;;;;;16.33;12.68;;;34.60;81.20;;;;;;4180586;28;20107;-71
2022/04/27 10:47:20;;;;;;;17.98;13.80;;;34.70;80.70;;;;;;4183710;28;20045;-72
2022/04/27 10:49:25;;;;;;;16.30;13.07;;;34.80;80.80;;;;;;4196852;28;20119;-72
2022/04/27 10:52:03;;;;;;;18.38;13.00;;;34.80;81.10;;;;;;4186830;28;20072;-74
2022/04/27 10:54:16;;;;;;;17.65;12.98;;;34.80;81.20;;;;;;4179798;28;20055;-73
2022/04/27 10:56:22;;;;;;;19.42;13.45;;;34.80;81.90;;;;;;4183359;28;20044;-71
2022/04/27 10:58:32;;;;;;;21.80;13.75;;;34.80;83.00;;;;;;4193881;28;20052;-72
2022/04/27 11:01:20;;;;;;;21.85;14.35;;;34.80;83.90;;;;;;4189653;28;20041;-71
2022/04/27 11:03:35;;;;;;;23.00;15.15;;;34.80;85.00;;;;;;4183826;28;20131;-73
2022/04/27 11:05:40;;;;;;;18.95;13.93;;;34.70;84.30;;;;;;4179693;28;20041;-71
2022/04/27 11:08:09;;;;;;;24.75;13.93;;;34.70;84.30;;;;;;4168901;28;20470;-73
2022/04/27 11:10:16;;;;;;;24.38;14.52;;;34.70;84.70;;;;;;4186272;28;20045;-71
2022/04/27 11:12:21;;;;;;;20.52;13.70;;;34.60;84.80;;;;;;4186407;28;20126;-72
2022/04/27 11:14:34;;;;;;;19.30;13.95;;;34.60;85.00;;;;;;4175691;28;20072;-72
2022/04/27 11:16:49;;;;;;;19.15;13.40;;;34.60;85.40;;;;;;4202168;28;20135;-73
2022/04/27 11:18:58;;;;;;;22.30;14.05;;;34.60;85.80;;;;;;4199464;28;20668;-71
2022/04/27 11:21:06;;;;;;;20.52;14.02;;;34.50;86.00;;;;;;4185715;28;20045;-72
2022/04/27 11:23:21;;;;;;;19.38;13.75;;;34.50;85.90;;;;;;4184371;28;20045;-73
2022/04/27 11:25:31;;;;;;;21.27;13.40;;;34.50;85.40;;;;;;4175297;28;20361;-73
2022/04/27 11:27:38;;;;;;;19.67;14.30;;;34.50;84.90;;;;;;4184683;28;20040;-72
2022/04/27 11:29:42;;;;;;;19.63;14.48;;;34.50;84.60;;;;;;4186046;28;20084;-73